Decoded Metar for OIKQ (GHESHM I. in IRAN) (IATA:N/A) | Meteo·Mobile Aviation Weather
aviador You're here:

OIKQ Decoded Metar

GHESHM I. in IRAN
Report Time2019-01-18 13:00:00
UTC Time2019-01-18 13:20:23
Flight Rules mvfr MVFR
Wind240° at 18 kt
W.Decomp.*RWY 23: 17.7 kt HW 3.1 kt RCW
W.Rank240° ranks 4
Current wind is above 240° avg. (13.3)
Visibility5000 m
Phenomena:Sand
Clouds:N/A
Expected CloudBase > 4,000 ft AGL from Temp-Dew spread
CeilingNone
Temp22°C (ISA +7)
Dew Point12°C (53% RH)
AAT16.1°C
QNH1013 hPa
Density Alt1,053 ft
Elevation39 ft
Report Wrong Elevation
Raw Report
METAR OIKQ 181300Z 24018KT 5000 SA NSC 22/12 Q1013=

Extra information for OIKQ:More info

Metar Taf Metar & Taf Last 4 Metars F.Rules Stats Wind Profile Meteogram Temp Stats Airport Information Weather charts Add Link Nearby VenuesMetar ALERT Operation Metar Decoded Social comments